createdAt,value
2018-08-23T00:00:39.836Z,19.77
2018-08-23T00:03:10.524Z,14.23
2018-08-23T00:05:39.838Z,16.23
2018-08-23T00:08:08.874Z,15.57
2018-08-23T00:10:36.925Z,15.27
2018-08-23T00:13:06.226Z,13.57
2018-08-23T00:15:35.730Z,14.10
2018-08-23T00:18:03.843Z,18.83
2018-08-23T00:20:38.688Z,20.30
2018-08-23T00:23:06.756Z,22.43
2018-08-23T00:25:34.873Z,19.23
2018-08-23T00:28:04.665Z,24.53
2018-08-23T00:30:32.851Z,17.67
2018-08-23T00:33:00.987Z,18.43
2018-08-23T00:35:32.399Z,19.40
2018-08-23T00:38:01.125Z,22.77
2018-08-23T00:40:29.499Z,19.30
2018-08-23T00:42:57.537Z,18.73
2018-08-23T00:45:25.918Z,32.07
2018-08-23T00:47:53.992Z,20.60
2018-08-23T00:51:00.322Z,22.30
2018-08-23T00:53:28.438Z,17.47
2018-08-23T00:56:07.796Z,22.27
2018-08-23T00:58:35.860Z,21.20
2018-08-23T01:01:04.595Z,21.87
2018-08-23T01:03:35.545Z,17.20
2018-08-23T01:06:04.458Z,20.10
2018-08-23T01:08:32.561Z,19.60
2018-08-23T01:11:01.364Z,20.33
2018-08-23T01:13:29.458Z,22.57
2018-08-23T01:15:57.661Z,21.17
2018-08-23T01:18:25.891Z,18.77
2018-08-23T01:20:53.908Z,26.20
2018-08-23T01:23:23.887Z,20.07
2018-08-23T01:25:51.965Z,26.67
2018-08-23T01:28:20.110Z,31.70
2018-08-23T01:30:48.213Z,20.10
2018-08-23T01:33:16.323Z,21.23
2018-08-23T01:35:44.423Z,24.67
2018-08-23T01:38:12.651Z,21.40
2018-08-23T01:40:40.808Z,16.60
2018-08-23T01:43:08.879Z,22.63
2018-08-23T01:45:37.037Z,22.93
2018-08-23T01:48:06.182Z,18.83
2018-08-23T01:50:34.213Z,21.43
2018-08-23T01:53:02.244Z,32.70
2018-08-23T01:55:30.350Z,20.83
2018-08-23T01:57:58.475Z,21.93
2018-08-23T02:00:27.752Z,25.57
2018-08-23T02:02:55.916Z,20.07
2018-08-23T02:05:23.949Z,29.53
2018-08-23T02:07:52.033Z,23.47
2018-08-23T02:10:20.080Z,21.47
2018-08-23T02:12:48.216Z,19.53
2018-08-23T02:15:16.250Z,21.80
2018-08-23T02:17:44.466Z,21.43
2018-08-23T02:20:12.529Z,25.33
2018-08-23T02:22:40.579Z,18.67
2018-08-23T02:25:08.729Z,22.70
2018-08-23T02:28:02.211Z,24.77
2018-08-23T02:30:41.739Z,21.03
2018-08-23T02:33:09.953Z,23.27
2018-08-23T02:35:38.005Z,27.23
2018-08-23T02:38:06.176Z,29.40
2018-08-23T02:40:34.786Z,30.23
2018-08-23T02:43:03.038Z,26.00
2018-08-23T02:45:32.578Z,23.10
2018-08-23T02:48:00.701Z,27.07
2018-08-23T02:50:28.789Z,25.17
2018-08-23T02:52:56.862Z,39.33
2018-08-23T02:55:24.935Z,37.77
2018-08-23T02:57:59.125Z,39.23
2018-08-23T03:00:27.168Z,42.33
2018-08-23T03:02:55.362Z,40.57
2018-08-23T03:05:23.703Z,39.37
2018-08-23T03:07:51.736Z,39.23
2018-08-23T03:10:19.809Z,39.57
2018-08-23T03:12:47.786Z,23.23
2018-08-23T03:15:17.167Z,32.73
2018-08-23T03:17:45.182Z,21.97
2018-08-23T03:20:16.702Z,26.83
2018-08-23T03:22:45.104Z,27.00
2018-08-23T03:25:13.140Z,22.10
2018-08-23T03:27:41.206Z,21.87
2018-08-23T03:30:09.724Z,24.17
2018-08-23T03:32:37.871Z,24.37
2018-08-23T03:35:06.034Z,27.33
2018-08-23T03:37:34.105Z,28.60
2018-08-23T03:40:02.917Z,27.93
2018-08-23T03:42:31.210Z,26.60
2018-08-23T03:44:59.397Z,27.53
2018-08-23T03:47:31.353Z,29.63
2018-08-23T03:50:00.166Z,31.83
2018-08-23T03:52:28.363Z,23.43
2018-08-23T03:54:56.446Z,36.53
2018-08-23T03:57:24.651Z,40.23
2018-08-23T03:59:52.836Z,31.73
2018-08-23T04:02:20.862Z,24.40
2018-08-23T04:04:48.993Z,27.17
2018-08-23T04:07:17.687Z,21.23
2018-08-23T04:09:45.745Z,26.73
2018-08-23T04:12:13.799Z,22.60
2018-08-23T04:14:41.962Z,25.47
2018-08-23T04:17:10.006Z,27.30
2018-08-23T04:19:38.025Z,26.77
2018-08-23T04:22:06.125Z,31.03
2018-08-23T04:24:34.187Z,35.03
2018-08-23T04:27:02.297Z,36.47
2018-08-23T04:29:30.358Z,35.87
2018-08-23T04:31:58.385Z,26.20
2018-08-23T04:34:26.413Z,25.70
2018-08-23T04:36:54.461Z,26.30
2018-08-23T04:39:22.500Z,24.37
2018-08-23T04:41:50.540Z,24.93
2018-08-23T04:44:18.588Z,23.90
2018-08-23T04:46:46.660Z,26.73
2018-08-23T04:49:14.737Z,21.70
2018-08-23T04:51:42.849Z,26.33
2018-08-23T04:54:10.946Z,26.80
2018-08-23T04:56:39.009Z,28.07
2018-08-23T04:59:07.044Z,30.03
2018-08-23T05:01:35.177Z,25.90
2018-08-23T05:04:03.461Z,30.73
2018-08-23T05:06:31.457Z,34.93
2018-08-23T05:08:59.502Z,30.90
2018-08-23T05:11:27.929Z,29.47
2018-08-23T05:13:56.113Z,26.50
2018-08-23T05:16:24.150Z,26.63
2018-08-23T05:18:52.206Z,29.87
2018-08-23T05:21:22.394Z,28.30
2018-08-23T05:23:51.769Z,26.03
2018-08-23T05:26:19.853Z,26.20
2018-08-23T05:28:59.076Z,24.03
2018-08-23T05:31:27.367Z,31.00
2018-08-23T05:33:57.476Z,32.53
2018-08-23T05:36:26.021Z,29.30
2018-08-23T05:38:54.137Z,25.17
2018-08-23T05:41:22.210Z,28.53
2018-08-23T05:44:02.772Z,25.80
2018-08-23T05:46:36.974Z,25.43
2018-08-23T05:49:05.424Z,26.70
2018-08-23T05:51:33.603Z,25.97
2018-08-23T05:54:01.850Z,26.60
2018-08-23T05:56:29.970Z,30.70
2018-08-23T05:58:57.997Z,28.33
2018-08-23T06:01:26.033Z,29.10
2018-08-23T06:03:54.390Z,24.70
2018-08-23T06:06:22.375Z,37.87
2018-08-23T06:08:50.450Z,39.90
2018-08-23T06:11:18.500Z,41.07
2018-08-23T06:13:46.573Z,37.53
2018-08-23T06:16:14.622Z,39.20
2018-08-23T06:18:42.693Z,43.93
2018-08-23T06:21:10.805Z,37.43
2018-08-23T06:23:54.909Z,41.60
2018-08-23T06:26:29.568Z,29.00
2018-08-23T06:28:57.597Z,35.70
2018-08-23T06:31:25.644Z,39.93
2018-08-23T06:33:55.524Z,37.83
2018-08-23T06:36:23.849Z,47.27
2018-08-23T06:38:52.146Z,45.13
2018-08-23T06:41:20.274Z,41.70
2018-08-23T06:43:48.330Z,37.27
2018-08-23T06:46:16.493Z,32.20
2018-08-23T06:48:44.926Z,36.43
2018-08-23T06:51:13.023Z,40.60
2018-08-23T06:53:46.406Z,40.47
2018-08-23T06:56:14.735Z,31.63
2018-08-23T06:58:42.804Z,45.57
2018-08-23T07:01:20.795Z,44.70
2018-08-23T07:03:49.297Z,40.83
2018-08-23T07:06:18.173Z,38.77
2018-08-23T07:08:46.849Z,42.23
2018-08-23T07:11:19.578Z,39.80
2018-08-23T07:13:49.730Z,37.60
2018-08-23T07:16:18.204Z,41.23
2018-08-23T07:18:46.273Z,30.83
2018-08-23T07:21:15.171Z,43.07
2018-08-23T07:23:44.834Z,38.60
2018-08-23T07:26:12.938Z,39.93
2018-08-23T07:28:40.926Z,39.47
2018-08-23T07:31:08.956Z,43.27
2018-08-23T07:33:37.078Z,39.90
2018-08-23T07:36:16.350Z,42.80
2018-08-23T07:38:47.296Z,40.00
2018-08-23T07:41:15.467Z,40.27
2018-08-23T07:43:43.603Z,35.40
2018-08-23T07:46:11.669Z,38.57
2018-08-23T07:48:40.722Z,42.07
2018-08-23T07:51:09.470Z,48.57
2018-08-23T07:53:37.567Z,43.40
2018-08-23T07:56:19.775Z,44.60
2018-08-23T07:58:48.082Z,40.67
2018-08-23T08:01:16.386Z,43.10
2018-08-23T08:10:40.708Z,43.20
2018-08-23T08:13:19.153Z,38.73
2018-08-23T08:15:47.286Z,40.90
2018-08-23T08:18:15.393Z,37.90
2018-08-23T08:20:43.565Z,38.07
2018-08-23T08:23:11.564Z,36.87
2018-08-23T08:25:40.195Z,41.13
2018-08-23T08:28:14.607Z,35.63
2018-08-23T08:30:43.561Z,36.20
2018-08-23T08:33:12.093Z,29.03
2018-08-23T08:35:42.420Z,29.27
2018-08-23T08:38:10.502Z,27.77
2018-08-23T08:40:38.759Z,26.83
2018-08-23T08:43:07.336Z,25.13
2018-08-23T08:45:35.635Z,24.67
2018-08-23T08:48:10.490Z,26.17
2018-08-23T08:50:38.851Z,22.63
2018-08-23T08:53:07.067Z,22.53
2018-08-23T08:55:35.404Z,23.63
2018-08-23T08:58:04.403Z,21.77
2018-08-23T09:00:37.634Z,19.33
2018-08-23T09:03:05.704Z,19.87
2018-08-23T09:05:33.937Z,19.47
2018-08-23T09:08:02.094Z,18.00
2018-08-23T09:10:30.130Z,20.47
2018-08-23T09:12:58.225Z,17.27
2018-08-23T09:15:26.263Z,16.93
2018-08-23T09:17:58.399Z,16.20
2018-08-23T09:20:26.476Z,16.07
2018-08-23T09:22:54.510Z,15.67
2018-08-23T09:25:24.779Z,14.00
2018-08-23T09:27:53.061Z,15.23
2018-08-23T09:30:22.684Z,13.17
2018-08-23T09:32:50.741Z,14.23
2018-08-23T09:35:18.825Z,16.70
2018-08-23T09:37:46.952Z,16.87
2018-08-23T09:40:15.024Z,13.30
2018-08-23T09:42:43.092Z,13.53
2018-08-23T09:45:12.795Z,14.80
2018-08-23T09:47:40.867Z,13.87
2018-08-23T09:50:09.059Z,15.87
2018-08-23T09:52:39.902Z,13.80
2018-08-23T09:55:08.306Z,11.83
2018-08-23T09:57:36.807Z,12.47
2018-08-23T10:00:10.428Z,11.70
2018-08-23T10:02:39.099Z,11.80
2018-08-23T10:05:07.932Z,10.37
2018-08-23T10:07:35.940Z,10.80
2018-08-23T10:10:04.143Z,11.87
2018-08-23T10:12:32.948Z,10.53
2018-08-23T10:15:01.348Z,11.93
2018-08-23T10:17:29.532Z,11.07
2018-08-23T10:19:57.605Z,10.83
2018-08-23T10:22:25.654Z,12.50
2018-08-23T10:24:53.834Z,11.60
2018-08-23T10:27:21.894Z,12.43
2018-08-23T10:29:50.506Z,11.40
2018-08-23T10:32:26.621Z,13.83
2018-08-23T10:37:46.883Z,12.90
2018-08-23T10:40:15.217Z,14.03
2018-08-23T10:42:44.651Z,13.73
2018-08-23T10:45:12.825Z,14.37
2018-08-23T10:47:40.937Z,13.93
2018-08-23T10:50:08.977Z,14.07
2018-08-23T10:52:37.040Z,14.53
2018-08-23T10:55:05.261Z,24.03
2018-08-23T10:57:33.465Z,22.43
2018-08-23T11:00:01.669Z,23.27
2018-08-23T11:02:29.724Z,23.27
2018-08-23T11:05:00.004Z,18.90
2018-08-23T11:07:28.213Z,21.37
2018-08-23T11:09:56.234Z,23.30
2018-08-23T11:12:24.274Z,21.60
2018-08-23T11:14:52.325Z,18.97
2018-08-23T11:17:20.712Z,18.27
2018-08-23T11:19:48.783Z,16.63
2018-08-23T11:22:17.923Z,16.43
2018-08-23T11:24:45.971Z,18.73
2018-08-23T11:27:14.054Z,18.43
2018-08-23T11:29:43.957Z,18.53
2018-08-23T11:32:12.038Z,16.43
2018-08-23T11:34:40.248Z,19.60
2018-08-23T11:37:08.457Z,22.63
2018-08-23T11:39:36.590Z,22.03
2018-08-23T11:42:04.920Z,27.33
2018-08-23T11:44:33.095Z,21.33
2018-08-23T11:47:01.356Z,20.10
2018-08-23T11:49:29.518Z,22.67
2018-08-23T11:51:57.626Z,19.43
2018-08-23T11:54:25.758Z,19.43
2018-08-23T11:56:53.902Z,19.83
2018-08-23T11:59:22.013Z,17.30
2018-08-23T12:01:50.214Z,16.60
2018-08-23T12:04:18.794Z,16.10
2018-08-23T12:06:47.284Z,15.23
2018-08-23T12:09:15.367Z,17.83
2018-08-23T12:11:47.988Z,14.70
2018-08-23T12:14:16.831Z,17.73
2018-08-23T12:16:45.171Z,17.00
2018-08-23T12:19:14.300Z,15.00
2018-08-23T12:21:42.809Z,14.10
2018-08-23T12:24:11.003Z,19.30
2018-08-23T12:26:39.176Z,18.90
2018-08-23T12:29:07.703Z,17.83
2018-08-23T12:31:36.034Z,20.47
2018-08-23T12:34:04.101Z,22.33
2018-08-23T12:36:32.447Z,22.70
2018-08-23T12:39:00.605Z,20.00
2018-08-23T12:41:28.786Z,18.10
2018-08-23T12:43:58.277Z,19.07
2018-08-23T12:46:26.587Z,19.93
2018-08-23T12:48:54.660Z,17.50
2018-08-23T12:51:22.838Z,19.53
2018-08-23T12:53:51.034Z,16.37
2018-08-23T12:56:19.196Z,16.53
2018-08-23T12:58:47.369Z,12.80
2018-08-23T13:01:15.414Z,9.97
2018-08-23T13:03:43.479Z,12.37
2018-08-23T13:08:49.510Z,13.57
2018-08-23T13:11:17.689Z,10.73
2018-08-23T13:13:45.708Z,10.23
2018-08-23T13:16:13.768Z,10.33
2018-08-23T13:18:41.891Z,9.40
2018-08-23T13:21:10.288Z,10.70
2018-08-23T13:23:39.066Z,9.83
2018-08-23T13:26:07.246Z,10.60
2018-08-23T13:28:35.543Z,9.47
2018-08-23T13:31:03.773Z,9.90
2018-08-23T13:33:32.090Z,10.87
2018-08-23T13:36:00.147Z,10.87
2018-08-23T13:38:28.253Z,11.67
2018-08-23T13:40:56.281Z,12.50
2018-08-23T13:43:25.145Z,12.90
2018-08-23T13:45:53.366Z,12.80
2018-08-23T13:48:21.541Z,11.90
2018-08-23T13:50:49.611Z,12.23
2018-08-23T13:53:17.683Z,10.10
2018-08-23T13:55:45.752Z,9.77
2018-08-23T13:58:13.902Z,9.37
2018-08-23T14:00:42.476Z,9.10
2018-08-23T14:03:10.530Z,11.00
2018-08-23T14:05:38.648Z,11.53
2018-08-23T14:08:07.537Z,9.80
2018-08-23T14:10:35.597Z,10.33
2018-08-23T14:13:03.665Z,11.00
2018-08-23T14:15:33.743Z,12.63
2018-08-23T14:18:01.769Z,12.67
2018-08-23T14:20:29.898Z,12.70
2018-08-23T14:22:57.999Z,11.67
2018-08-23T14:25:26.216Z,10.73
2018-08-23T14:27:54.259Z,11.47
2018-08-23T14:30:22.369Z,10.30
2018-08-23T14:32:50.520Z,10.97
2018-08-23T14:35:18.820Z,13.37
2018-08-23T14:37:47.111Z,13.27
2018-08-23T14:40:16.147Z,13.07
2018-08-23T14:42:44.554Z,14.27
2018-08-23T14:45:13.230Z,12.67
2018-08-23T14:47:41.356Z,14.53
2018-08-23T14:50:09.416Z,12.07
2018-08-23T14:52:37.798Z,11.53
2018-08-23T14:55:05.972Z,9.60
2018-08-23T14:57:34.005Z,12.77
2018-08-23T15:00:02.194Z,12.43
2018-08-23T15:02:30.879Z,11.87
2018-08-23T15:04:58.919Z,11.10
2018-08-23T15:07:27.862Z,12.97
2018-08-23T15:09:56.011Z,12.07
2018-08-23T15:12:24.127Z,11.27
2018-08-23T15:14:52.362Z,10.80
2018-08-23T15:17:20.446Z,10.63
2018-08-23T15:19:48.737Z,10.30
2018-08-23T15:22:16.917Z,10.97
2018-08-23T15:24:45.275Z,12.20
2018-08-23T15:27:13.503Z,9.20
2018-08-23T15:29:41.384Z,8.93
2018-08-23T15:32:09.427Z,9.10
2018-08-23T15:34:37.521Z,9.03
2018-08-23T15:37:05.657Z,8.33
2018-08-23T15:39:33.765Z,7.67
2018-08-23T15:42:02.484Z,7.97
2018-08-23T15:44:30.752Z,8.07
2018-08-23T15:46:58.915Z,6.67
2018-08-23T15:49:27.014Z,5.77
2018-08-23T15:51:55.205Z,6.90
2018-08-23T15:57:07.591Z,5.97
2018-08-23T15:59:35.737Z,7.80
2018-08-23T16:02:03.961Z,6.30
2018-08-23T16:04:32.302Z,6.10
2018-08-23T16:07:00.361Z,7.47
2018-08-23T16:09:29.264Z,6.70
2018-08-23T16:11:57.383Z,7.80
2018-08-23T16:14:25.552Z,7.77
2018-08-23T16:16:53.676Z,7.83
2018-08-23T16:19:21.824Z,7.37
2018-08-23T16:21:51.403Z,7.67
2018-08-23T16:24:19.786Z,7.60
2018-08-23T16:26:48.081Z,6.20
2018-08-23T16:29:16.121Z,8.50
2018-08-23T16:31:44.496Z,8.77
2018-08-23T16:34:12.679Z,6.40
2018-08-23T16:36:41.302Z,8.00
2018-08-23T16:41:56.602Z,6.23
2018-08-23T16:44:24.716Z,6.27
2018-08-23T16:46:53.034Z,6.00
2018-08-23T16:49:22.892Z,6.60
2018-08-23T16:51:50.974Z,5.80
2018-08-23T16:54:19.129Z,4.60
2018-08-23T16:56:47.236Z,5.07
2018-08-23T17:02:01.811Z,4.60
2018-08-23T17:04:30.081Z,5.17
2018-08-23T17:06:58.204Z,4.90
2018-08-23T17:09:26.336Z,4.80
2018-08-23T17:11:54.480Z,4.33
2018-08-23T17:14:22.845Z,3.70
2018-08-23T17:16:50.998Z,3.90
2018-08-23T17:19:19.090Z,3.83
2018-08-23T17:21:47.247Z,3.50
2018-08-23T17:24:15.489Z,3.27
2018-08-23T17:26:43.589Z,3.27
2018-08-23T17:29:11.677Z,3.77
2018-08-23T17:31:39.908Z,2.97
2018-08-23T17:34:08.062Z,3.30
2018-08-23T17:36:36.153Z,3.10
2018-08-23T17:39:05.953Z,3.43
2018-08-23T17:41:34.131Z,3.37
2018-08-23T17:44:04.061Z,3.37
2018-08-23T17:46:32.311Z,3.20
2018-08-23T17:49:01.734Z,3.37
2018-08-23T17:51:29.810Z,2.70
2018-08-23T17:53:57.864Z,3.30
2018-08-23T17:56:25.955Z,3.87
2018-08-23T17:58:54.109Z,3.17
2018-08-23T18:01:22.290Z,3.23
2018-08-23T18:03:50.393Z,3.50
2018-08-23T18:06:18.501Z,3.20
2018-08-23T18:08:46.611Z,3.27
2018-08-23T18:11:15.027Z,2.67
2018-08-23T18:13:43.115Z,2.90
2018-08-23T18:16:11.201Z,3.03
2018-08-23T18:18:39.281Z,3.30
2018-08-23T18:21:07.404Z,3.53
2018-08-23T18:23:35.489Z,2.77
2018-08-23T18:26:03.713Z,2.80
2018-08-23T18:28:32.032Z,3.03
2018-08-23T18:31:00.101Z,3.03
2018-08-23T18:33:28.286Z,3.30
2018-08-23T18:35:56.259Z,2.90
2018-08-23T18:38:24.426Z,3.00
2018-08-23T18:40:52.505Z,3.50
2018-08-23T18:43:20.673Z,3.00
2018-08-23T18:45:48.787Z,3.03
2018-08-23T18:48:17.593Z,2.80
2018-08-23T18:50:45.701Z,2.97
2018-08-23T18:53:13.850Z,3.80
2018-08-23T18:55:41.970Z,7.13
2018-08-23T18:58:10.034Z,5.23
2018-08-23T19:00:38.195Z,4.70
2018-08-23T19:03:06.417Z,2.63
2018-08-23T19:05:39.995Z,3.17
2018-08-23T19:08:08.096Z,3.17
2018-08-23T19:10:36.198Z,2.97
2018-08-23T19:13:04.687Z,3.03
2018-08-23T19:15:33.395Z,2.57
2018-08-23T19:18:01.473Z,2.40
2018-08-23T19:20:29.573Z,2.83
2018-08-23T19:22:57.649Z,2.97
2018-08-23T19:25:25.783Z,2.53
2018-08-23T19:27:53.881Z,2.33
2018-08-23T19:30:21.986Z,2.73
2018-08-23T19:32:50.097Z,2.50
2018-08-23T19:35:18.171Z,2.70
2018-08-23T19:37:46.266Z,2.13
2018-08-23T19:40:16.034Z,2.50
2018-08-23T19:42:44.140Z,2.70
2018-08-23T19:45:12.348Z,2.63
2018-08-23T19:47:40.525Z,2.53
2018-08-23T19:50:08.731Z,2.10
2018-08-23T19:52:37.070Z,2.63
2018-08-23T19:55:06.537Z,2.63
2018-08-23T19:57:34.710Z,2.67
2018-08-23T20:00:02.966Z,2.40
2018-08-23T20:02:31.088Z,2.40
2018-08-23T20:04:59.165Z,2.40
2018-08-23T20:07:27.270Z,2.30
2018-08-23T20:09:55.936Z,2.60
2018-08-23T20:12:24.005Z,2.67
2018-08-23T20:14:52.123Z,2.20
2018-08-23T20:17:20.327Z,2.40
2018-08-23T20:19:48.445Z,2.40
2018-08-23T20:22:16.476Z,2.33
2018-08-23T20:24:44.559Z,2.23
2018-08-23T20:27:12.748Z,2.00
2018-08-23T20:29:41.034Z,2.20
2018-08-23T20:32:09.118Z,2.27
2018-08-23T20:34:37.353Z,2.00
2018-08-23T20:37:05.520Z,2.50
2018-08-23T20:39:35.632Z,2.20
2018-08-23T20:42:03.869Z,2.07
2018-08-23T20:44:33.821Z,2.20
2018-08-23T20:47:02.117Z,1.90
2018-08-23T20:49:30.240Z,2.50
2018-08-23T20:51:58.332Z,1.90
2018-08-23T20:54:26.480Z,2.27
2018-08-23T20:56:54.558Z,1.97
2018-08-23T20:59:22.630Z,2.10
2018-08-23T21:01:50.710Z,2.20
2018-08-23T21:04:20.937Z,2.20
2018-08-23T21:06:48.925Z,2.30
2018-08-23T21:09:17.008Z,2.30
2018-08-23T21:11:45.077Z,2.27
2018-08-23T21:14:13.749Z,2.23
2018-08-23T21:16:41.857Z,2.17
2018-08-23T21:19:09.913Z,2.33
2018-08-23T21:21:38.307Z,2.53
2018-08-23T21:24:06.356Z,2.10
2018-08-23T21:26:34.523Z,2.10
2018-08-23T21:29:02.573Z,2.20
2018-08-23T21:31:30.659Z,1.80
2018-08-23T21:33:58.689Z,1.80
2018-08-23T21:36:28.065Z,2.07
2018-08-23T21:38:56.129Z,1.90
2018-08-23T21:41:24.167Z,2.10
2018-08-23T21:43:52.252Z,2.07
2018-08-23T21:46:20.329Z,1.80
2018-08-23T21:48:50.954Z,2.10
2018-08-23T21:51:19.057Z,2.10
2018-08-23T21:53:47.395Z,2.00
2018-08-23T21:56:15.455Z,1.77
2018-08-23T21:58:44.190Z,1.93
2018-08-23T22:01:12.370Z,2.10
2018-08-23T22:03:40.405Z,1.80
2018-08-23T22:06:08.528Z,1.77
2018-08-23T22:08:36.753Z,2.00
2018-08-23T22:11:08.141Z,1.50
2018-08-23T22:13:37.243Z,1.70
2018-08-23T22:16:05.472Z,1.53
2018-08-23T22:18:33.629Z,2.03
2018-08-23T22:21:01.660Z,1.60
2018-08-23T22:23:29.717Z,1.80
2018-08-23T22:25:58.715Z,1.60
2018-08-23T22:28:26.947Z,1.80
2018-08-23T22:30:57.689Z,1.70
2018-08-23T22:33:25.931Z,1.60
2018-08-23T22:35:54.114Z,1.57
2018-08-23T22:38:22.203Z,1.60
2018-08-23T22:40:50.284Z,1.50
2018-08-23T22:43:18.996Z,1.60
2018-08-23T22:45:47.058Z,1.60
2018-08-23T22:48:22.196Z,1.60
2018-08-23T22:50:50.728Z,1.50
2018-08-23T22:53:18.943Z,1.47
2018-08-23T22:55:47.233Z,1.50
2018-08-23T22:58:16.054Z,1.60
2018-08-23T23:00:44.258Z,1.73
2018-08-23T23:03:12.290Z,1.67
2018-08-23T23:05:40.405Z,1.73
2018-08-23T23:08:08.761Z,1.87
2018-08-23T23:10:37.231Z,1.80
2018-08-23T23:13:08.747Z,1.40
2018-08-23T23:15:37.150Z,1.47
2018-08-23T23:18:05.312Z,1.57
2018-08-23T23:20:33.537Z,1.60
2018-08-23T23:23:01.673Z,1.80
2018-08-23T23:25:29.886Z,1.60
2018-08-23T23:27:57.900Z,1.33
2018-08-23T23:30:25.937Z,1.30
2018-08-23T23:32:53.948Z,1.40
2018-08-23T23:35:21.991Z,1.40
2018-08-23T23:37:50.109Z,1.20
2018-08-23T23:40:18.287Z,1.60
2018-08-23T23:42:46.398Z,1.50
2018-08-23T23:45:14.801Z,1.73
2018-08-23T23:47:42.851Z,2.30
2018-08-23T23:50:10.888Z,1.97
2018-08-23T23:52:38.962Z,2.00
2018-08-23T23:55:07.040Z,1.20
2018-08-23T23:57:35.109Z,1.07
